Time;durP1;ratioP1;P1;durP2;ratioP2;P2;SDS_P1;SDS_P2;PMS_P1;PMS_P2;Temp;Humidity;BMP_temperature;BMP_pressure;BME280_temperature;BME280_humidity;BME280_pressure;Samples;Min_cycle;Max_cycle;Signal;HPM_P1;HPM_P2
2023/08/20 00:00:27;;;;;;;9.55;1.45;;;15.40;99.90;;;;;;5061594;28;20024;-89
2023/08/20 00:03:03;;;;;;;9.68;1.38;;;15.40;99.90;;;;;;5058633;28;20057;-91
2023/08/20 00:05:29;;;;;;;13.38;1.70;;;15.40;99.90;;;;;;5055289;28;20029;-89
2023/08/20 00:07:55;;;;;;;10.45;2.00;;;15.40;99.90;;;;;;5057953;28;20192;-90
2023/08/20 00:10:20;;;;;;;9.32;1.70;;;15.40;99.90;;;;;;5059941;28;20162;-89
2023/08/20 00:12:46;;;;;;;9.95;1.73;;;15.30;99.90;;;;;;5054212;28;20048;-90
2023/08/20 00:15:12;;;;;;;3.53;1.20;;;15.30;99.90;;;;;;5058332;28;20028;-90
2023/08/20 00:17:39;;;;;;;9.20;1.50;;;15.30;99.90;;;;;;5057433;28;20124;-90
2023/08/20 00:20:12;;;;;;;10.60;1.50;;;15.30;99.90;;;;;;5055238;28;20030;-90
2023/08/20 00:22:39;;;;;;;9.73;1.40;;;15.20;99.90;;;;;;5048410;28;20144;-91
2023/08/20 00:25:05;;;;;;;12.05;2.42;;;15.20;99.90;;;;;;5073520;28;20029;-90
2023/08/20 00:27:32;;;;;;;9.77;2.00;;;15.20;99.90;;;;;;5069045;28;20512;-90
2023/08/20 00:29:58;;;;;;;13.40;1.80;;;15.10;99.90;;;;;;5062669;28;20100;-90
2023/08/20 00:32:24;;;;;;;7.35;1.70;;;15.10;99.90;;;;;;5062576;28;20616;-90
2023/08/20 00:34:49;;;;;;;13.30;1.92;;;15.10;99.90;;;;;;5053592;28;20387;-90
2023/08/20 00:37:15;;;;;;;7.07;1.88;;;15.00;99.90;;;;;;5043945;28;20040;-91
2023/08/20 00:39:41;;;;;;;4.93;1.52;;;15.00;99.90;;;;;;5043596;28;20427;-91
2023/08/20 00:42:07;;;;;;;13.48;2.08;;;15.00;99.90;;;;;;5046155;28;20044;-90
2023/08/20 00:44:36;;;;;;;11.77;1.73;;;15.00;99.90;;;;;;5062710;28;20029;-87
2023/08/20 00:47:04;;;;;;;10.40;2.20;;;14.90;99.90;;;;;;5064692;28;20052;-90
2023/08/20 00:49:31;;;;;;;11.00;2.47;;;15.00;99.90;;;;;;5069702;28;20025;-90
2023/08/20 00:51:57;;;;;;;9.32;1.50;;;14.90;99.90;;;;;;5071598;28;20135;-90
2023/08/20 00:54:23;;;;;;;8.32;1.90;;;14.90;99.90;;;;;;5069028;28;20016;-88
2023/08/20 00:56:50;;;;;;;7.72;1.60;;;14.90;99.90;;;;;;5063138;28;20035;-89
2023/08/20 00:59:16;;;;;;;8.40;1.83;;;14.90;99.90;;;;;;5060928;28;20025;-89
2023/08/20 01:01:42;;;;;;;6.72;1.60;;;14.80;99.90;;;;;;5061319;28;20028;-90
2023/08/20 01:04:08;;;;;;;14.35;2.15;;;14.80;99.90;;;;;;5062111;28;21216;-89
2023/08/20 01:07:02;;;;;;;11.38;1.92;;;14.80;99.90;;;;;;5058445;28;20029;-90
2023/08/20 01:09:31;;;;;;;15.05;2.58;;;14.80;99.90;;;;;;5057482;28;20037;-89
2023/08/20 01:12:00;;;;;;;12.05;2.00;;;14.70;99.90;;;;;;5060323;28;20044;-90
2023/08/20 01:14:26;;;;;;;8.48;1.67;;;14.70;99.90;;;;;;5060767;28;20429;-90
2023/08/20 01:16:52;;;;;;;8.60;2.08;;;14.70;99.90;;;;;;5061155;28;20025;-89
2023/08/20 01:19:20;;;;;;;8.40;1.60;;;14.70;99.90;;;;;;5060619;28;20134;-89
2023/08/20 01:22:10;;;;;;;10.55;1.88;;;14.70;99.90;;;;;;5060548;28;20021;-89
2023/08/20 01:24:51;;;;;;;11.13;1.80;;;14.70;99.90;;;;;;5059143;28;20056;-89
2023/08/20 01:27:30;;;;;;;11.68;1.55;;;14.60;99.90;;;;;;5059803;28;20096;-90
2023/08/20 01:29:56;;;;;;;10.95;1.70;;;14.60;99.90;;;;;;5060465;28;20021;-90
2023/08/20 01:32:23;;;;;;;11.73;1.83;;;14.60;99.90;;;;;;5060435;28;20025;-89
2023/08/20 01:34:49;;;;;;;14.43;1.90;;;14.60;99.90;;;;;;5061322;28;20049;-90
2023/08/20 01:37:16;;;;;;;7.57;2.10;;;14.50;99.90;;;;;;5066855;28;20048;-90
2023/08/20 01:39:41;;;;;;;13.45;1.73;;;14.50;99.90;;;;;;5063462;28;20067;-90
2023/08/20 01:42:07;;;;;;;10.65;1.90;;;14.50;99.90;;;;;;5061309;28;20036;-90
2023/08/20 01:44:33;;;;;;;11.10;1.70;;;14.50;99.90;;;;;;5062135;28;20025;-90
2023/08/20 01:46:59;;;;;;;5.93;1.48;;;14.40;99.90;;;;;;5060593;28;20049;-91
2023/08/20 01:49:24;;;;;;;8.02;1.55;;;14.40;99.90;;;;;;5061715;28;20037;-89
2023/08/20 01:51:50;;;;;;;10.35;1.92;;;14.40;99.90;;;;;;5060189;28;20130;-89
2023/08/20 01:54:16;;;;;;;9.75;1.52;;;14.40;99.90;;;;;;5060168;28;20013;-90
2023/08/20 01:56:42;;;;;;;9.48;2.10;;;14.40;99.90;;;;;;5060882;28;20021;-92
2023/08/20 01:59:08;;;;;;;13.88;2.00;;;14.40;99.90;;;;;;5061097;28;20119;-92
2023/08/20 02:01:34;;;;;;;12.55;1.80;;;14.40;99.90;;;;;;5059392;28;20020;-90
2023/08/20 02:03:59;;;;;;;11.43;2.15;;;14.30;99.90;;;;;;5060551;28;20089;-90
2023/08/20 02:06:25;;;;;;;7.47;1.85;;;14.30;99.90;;;;;;5062105;28;20051;-91
2023/08/20 02:08:51;;;;;;;10.32;1.80;;;14.30;99.90;;;;;;5060602;28;20029;-89
2023/08/20 02:11:17;;;;;;;7.63;1.48;;;14.30;99.90;;;;;;5064651;28;20028;-89
2023/08/20 02:13:43;;;;;;;11.05;1.70;;;14.30;99.90;;;;;;5072645;28;20078;-90
2023/08/20 02:16:09;;;;;;;11.07;1.75;;;14.40;99.90;;;;;;5059735;28;20029;-89
2023/08/20 02:18:35;;;;;;;14.55;4.05;;;14.40;99.90;;;;;;5060604;28;20028;-90
2023/08/20 02:21:01;;;;;;;11.35;2.33;;;14.30;99.90;;;;;;5059429;28;20029;-91
2023/08/20 02:23:27;;;;;;;9.63;1.70;;;14.30;99.90;;;;;;5061204;28;20094;-89
2023/08/20 02:25:53;;;;;;;8.32;2.72;;;14.30;99.90;;;;;;5059724;28;20083;-91
2023/08/20 02:28:18;;;;;;;18.27;1.60;;;14.30;99.90;;;;;;5061588;28;20029;-91
2023/08/20 02:30:46;;;;;;;8.65;1.52;;;14.30;99.90;;;;;;5061411;28;20017;-91
2023/08/20 02:33:12;;;;;;;7.40;1.67;;;14.20;99.90;;;;;;5061022;28;20033;-91
2023/08/20 02:35:39;;;;;;;10.40;1.83;;;14.20;99.90;;;;;;5062652;28;20029;-91
2023/08/20 02:38:05;;;;;;;12.23;2.60;;;14.20;99.90;;;;;;5076962;28;20013;-89
2023/08/20 02:40:32;;;;;;;10.73;1.63;;;14.10;99.90;;;;;;5077463;28;20028;-91
2023/08/20 02:42:58;;;;;;;11.60;1.60;;;14.10;99.90;;;;;;5073963;28;20040;-90
2023/08/20 02:45:23;;;;;;;12.95;1.83;;;14.10;99.90;;;;;;5074030;28;20044;-91
2023/08/20 02:47:49;;;;;;;12.75;1.88;;;14.10;99.90;;;;;;5071647;28;20596;-92
2023/08/20 02:50:15;;;;;;;11.35;2.22;;;14.00;99.90;;;;;;5071742;28;20072;-91
2023/08/20 02:52:45;;;;;;;12.25;2.10;;;14.00;99.90;;;;;;5075332;28;20020;-93
2023/08/20 02:55:10;;;;;;;6.47;1.50;;;14.00;99.90;;;;;;5069393;28;20028;-91
2023/08/20 02:57:36;;;;;;;19.45;2.55;;;14.00;99.90;;;;;;5075035;28;20029;-91
2023/08/20 03:00:02;;;;;;;9.75;2.15;;;14.00;99.90;;;;;;5076785;28;20053;-92
2023/08/20 03:02:28;;;;;;;9.95;1.70;;;13.90;99.90;;;;;;5076719;28;20048;-90
2023/08/20 03:04:55;;;;;;;15.02;2.25;;;13.90;99.90;;;;;;5076354;28;20017;-92
2023/08/20 03:07:22;;;;;;;5.05;1.60;;;13.90;99.90;;;;;;5076893;28;20021;-91
2023/08/20 03:09:48;;;;;;;12.07;2.10;;;13.90;99.90;;;;;;5076525;28;20076;-92
2023/08/20 03:12:13;;;;;;;12.98;2.00;;;13.90;99.90;;;;;;5076185;28;20021;-87
2023/08/20 03:14:39;;;;;;;7.30;1.60;;;13.80;99.90;;;;;;5074699;28;20036;-92
2023/08/20 03:17:05;;;;;;;7.13;1.67;;;13.80;99.90;;;;;;5065145;28;20025;-92
2023/08/20 03:19:34;;;;;;;13.65;1.90;;;13.80;99.90;;;;;;5064357;28;20470;-90
2023/08/20 03:21:59;;;;;;;10.38;1.70;;;13.80;99.90;;;;;;5062619;28;20025;-92
2023/08/20 03:24:25;;;;;;;18.98;2.92;;;13.80;99.90;;;;;;5061462;28;20094;-92
2023/08/20 03:26:50;;;;;;;8.80;2.80;;;13.80;99.90;;;;;;5060819;28;20053;-91
2023/08/20 03:29:16;;;;;;;6.70;1.52;;;13.80;99.90;;;;;;5061256;28;20051;-91
2023/08/20 03:31:42;;;;;;;8.98;2.05;;;13.80;99.90;;;;;;5061891;28;20029;-90
2023/08/20 03:34:09;;;;;;;17.67;1.90;;;13.70;99.90;;;;;;5061697;28;20025;-90
2023/08/20 03:36:35;;;;;;;12.70;2.15;;;13.70;99.90;;;;;;5059487;28;20490;-91
2023/08/20 03:39:00;;;;;;;9.23;1.70;;;13.70;99.90;;;;;;5059834;28;20065;-91
2023/08/20 03:41:26;;;;;;;14.68;2.83;;;13.60;99.90;;;;;;5059897;28;20029;-92
2023/08/20 03:43:52;;;;;;;9.35;1.67;;;13.60;99.90;;;;;;5059346;28;20025;-90
2023/08/20 03:46:17;;;;;;;7.72;1.52;;;13.50;99.90;;;;;;5056298;28;20052;-91
2023/08/20 03:48:43;;;;;;;8.27;2.30;;;13.50;99.90;;;;;;5059358;28;20033;-91
2023/08/20 03:51:08;;;;;;;9.20;1.85;;;13.40;99.90;;;;;;5058886;28;20154;-90
2023/08/20 03:53:34;;;;;;;9.23;1.58;;;13.40;99.90;;;;;;5059200;28;20017;-91
2023/08/20 03:56:00;;;;;;;11.20;1.88;;;13.40;99.90;;;;;;5059276;28;20651;-91
2023/08/20 03:58:25;;;;;;;12.52;1.70;;;13.40;99.90;;;;;;5060378;28;20047;-90
2023/08/20 04:00:51;;;;;;;11.57;1.63;;;13.40;99.90;;;;;;5059314;28;20043;-91
2023/08/20 04:03:19;;;;;;;19.80;2.22;;;13.50;99.90;;;;;;5058672;28;20036;-91
2023/08/20 04:05:45;;;;;;;8.80;1.85;;;13.40;99.90;;;;;;5059644;28;20174;-90
2023/08/20 04:08:11;;;;;;;6.40;1.63;;;13.50;99.90;;;;;;5058352;28;20029;-91
2023/08/20 04:10:44;;;;;;;12.23;1.95;;;13.50;99.90;;;;;;5058741;28;20504;-92
2023/08/20 04:13:09;;;;;;;5.95;1.50;;;13.50;99.90;;;;;;5058531;28;20029;-90
2023/08/20 04:15:35;;;;;;;9.90;1.92;;;13.40;99.90;;;;;;5062534;28;20028;-89
2023/08/20 04:18:00;;;;;;;10.80;2.50;;;13.40;99.90;;;;;;5063499;28;20021;-90
2023/08/20 04:20:26;;;;;;;7.07;1.35;;;13.40;99.90;;;;;;5059145;28;20028;-91
2023/08/20 04:22:52;;;;;;;9.85;1.98;;;13.40;99.90;;;;;;5058759;28;20074;-90
2023/08/20 04:25:17;;;;;;;10.18;1.95;;;13.40;99.90;;;;;;5058195;28;20088;-92
2023/08/20 04:27:43;;;;;;;10.57;1.92;;;13.30;99.90;;;;;;5058178;28;20041;-90
2023/08/20 04:30:09;;;;;;;12.98;2.20;;;13.30;99.90;;;;;;5059141;28;20474;-90
2023/08/20 04:32:35;;;;;;;4.88;1.50;;;13.30;99.90;;;;;;5054936;28;20494;-92
2023/08/20 04:35:01;;;;;;;7.63;2.08;;;13.20;99.90;;;;;;5058606;28;20033;-91
2023/08/20 04:37:26;;;;;;;15.57;2.10;;;13.20;99.90;;;;;;5058816;28;20033;-91
2023/08/20 04:39:52;;;;;;;13.07;2.30;;;13.10;99.90;;;;;;5058307;28;20050;-91
2023/08/20 04:42:18;;;;;;;4.97;1.35;;;13.10;99.90;;;;;;5057118;28;20049;-91
2023/08/20 04:44:43;;;;;;;14.57;1.77;;;13.10;99.90;;;;;;5058376;28;20082;-90
2023/08/20 04:47:15;;;;;;;8.57;2.15;;;13.00;99.90;;;;;;5058299;28;20596;-90
2023/08/20 04:49:41;;;;;;;6.80;1.60;;;13.00;99.90;;;;;;5057707;28;20032;-90
2023/08/20 04:52:06;;;;;;;11.70;1.98;;;13.00;99.90;;;;;;5058468;28;20044;-90
2023/08/20 04:54:32;;;;;;;16.13;2.45;;;13.00;99.90;;;;;;5057790;28;20059;-89
2023/08/20 04:56:58;;;;;;;6.22;1.80;;;13.10;99.90;;;;;;5058378;28;20055;-90
2023/08/20 04:59:23;;;;;;;12.38;2.17;;;13.10;99.90;;;;;;5058884;28;20013;-90
2023/08/20 05:01:49;;;;;;;17.70;2.22;;;13.10;99.90;;;;;;5037928;28;20498;-90
2023/08/20 05:04:15;;;;;;;15.60;2.70;;;13.10;99.90;;;;;;5058032;28;20107;-89
2023/08/20 05:06:40;;;;;;;15.88;2.22;;;13.20;99.90;;;;;;5057536;28;20052;-90
2023/08/20 05:09:06;;;;;;;13.75;2.10;;;13.20;99.90;;;;;;5057502;28;20055;-90
2023/08/20 05:11:32;;;;;;;10.32;2.40;;;13.20;99.90;;;;;;5059846;28;20020;-91
2023/08/20 05:13:58;;;;;;;14.63;4.32;;;13.30;99.90;;;;;;5060898;28;20032;-90
2023/08/20 05:16:24;;;;;;;7.65;2.08;;;13.30;99.90;;;;;;5067424;28;20035;-90
2023/08/20 05:18:50;;;;;;;17.38;2.42;;;13.30;99.90;;;;;;5071982;28;20032;-90
2023/08/20 05:21:15;;;;;;;11.32;2.03;;;13.30;99.90;;;;;;5071990;28;20044;-90
2023/08/20 05:23:41;;;;;;;10.77;1.70;;;13.30;99.90;;;;;;5072681;28;20047;-90
2023/08/20 05:26:07;;;;;;;11.20;1.90;;;13.30;99.90;;;;;;5073513;28;20076;-89
2023/08/20 05:28:33;;;;;;;12.93;2.47;;;13.40;99.90;;;;;;5073031;28;20032;-89
2023/08/20 05:30:59;;;;;;;8.25;2.38;;;13.40;99.90;;;;;;5072098;28;20029;-90
2023/08/20 05:33:25;;;;;;;7.95;2.33;;;13.40;99.90;;;;;;5072176;28;20031;-89
2023/08/20 05:35:50;;;;;;;7.18;2.35;;;13.40;99.90;;;;;;5070712;28;20029;-89
2023/08/20 05:38:16;;;;;;;7.47;2.10;;;13.50;99.90;;;;;;5063984;28;20024;-90
2023/08/20 05:40:42;;;;;;;10.75;1.98;;;13.50;99.90;;;;;;5063749;28;20112;-90
2023/08/20 05:43:08;;;;;;;12.10;2.42;;;13.50;99.90;;;;;;5063988;28;20066;-89
2023/08/20 05:45:34;;;;;;;6.32;1.75;;;13.50;99.90;;;;;;5068527;28;20040;-90
2023/08/20 05:48:00;;;;;;;13.73;2.33;;;13.60;99.90;;;;;;5068611;28;20036;-90
2023/08/20 05:50:25;;;;;;;12.73;2.17;;;13.60;99.90;;;;;;5068667;28;20021;-91
2023/08/20 05:52:52;;;;;;;10.02;1.80;;;13.60;99.90;;;;;;5069080;28;20064;-91
2023/08/20 05:55:18;;;;;;;24.08;2.75;;;13.70;99.90;;;;;;5065791;28;20088;-91
2023/08/20 05:57:44;;;;;;;12.65;2.45;;;13.70;99.90;;;;;;5065083;28;20025;-91
2023/08/20 06:00:10;;;;;;;10.45;2.80;;;13.80;99.90;;;;;;5062046;28;20052;-91
2023/08/20 06:02:37;;;;;;;6.20;2.03;;;13.90;99.90;;;;;;5067511;28;20143;-89
2023/08/20 06:05:04;;;;;;;21.63;2.80;;;13.90;99.90;;;;;;5065477;28;20051;-91
2023/08/20 06:07:31;;;;;;;15.68;3.10;;;14.00;99.90;;;;;;5064498;28;20211;-91
2023/08/20 06:09:57;;;;;;;14.23;2.70;;;14.00;99.90;;;;;;5065396;28;20021;-90
2023/08/20 06:12:23;;;;;;;15.75;2.67;;;14.10;99.90;;;;;;5062964;28;20024;-91
2023/08/20 06:14:49;;;;;;;7.90;1.98;;;14.20;99.90;;;;;;5065624;28;20468;-90
2023/08/20 06:17:14;;;;;;;11.15;2.00;;;14.20;99.90;;;;;;5065309;28;20033;-92
2023/08/20 06:19:40;;;;;;;11.27;2.30;;;14.30;99.90;;;;;;5067275;28;20089;-90
2023/08/20 06:22:06;;;;;;;11.38;1.98;;;14.40;99.90;;;;;;5068594;28;20107;-91
2023/08/20 06:24:32;;;;;;;9.98;2.45;;;14.40;99.90;;;;;;5065117;28;20021;-90
2023/08/20 06:26:57;;;;;;;13.63;2.38;;;14.40;99.90;;;;;;5064735;28;20043;-91
2023/08/20 06:29:23;;;;;;;10.20;2.22;;;14.50;99.90;;;;;;5065500;28;20089;-92
2023/08/20 06:31:50;;;;;;;15.27;2.75;;;14.40;99.90;;;;;;5066786;28;20033;-90
2023/08/20 06:34:15;;;;;;;14.07;2.40;;;14.50;99.90;;;;;;5064714;28;20028;-91
2023/08/20 06:36:41;;;;;;;8.38;1.90;;;14.40;99.90;;;;;;5064600;28;20025;-91
2023/08/20 06:39:07;;;;;;;11.30;2.33;;;14.50;99.90;;;;;;5069710;28;20490;-89
2023/08/20 06:41:33;;;;;;;16.80;2.20;;;14.50;99.90;;;;;;5065685;28;20092;-92
2023/08/20 06:43:59;;;;;;;8.98;2.10;;;14.60;99.90;;;;;;5068413;28;20093;-92
2023/08/20 06:46:25;;;;;;;11.90;2.45;;;14.70;99.90;;;;;;5066372;28;20075;-91
2023/08/20 06:48:50;;;;;;;11.63;2.35;;;14.80;99.90;;;;;;5060448;28;20051;-91
2023/08/20 06:51:21;;;;;;;11.57;2.50;;;14.90;99.90;;;;;;5063555;28;20089;-91
2023/08/20 06:53:47;;;;;;;10.32;1.85;;;14.90;99.90;;;;;;5065281;28;20051;-89
2023/08/20 06:56:12;;;;;;;11.77;2.05;;;15.00;99.90;;;;;;5070646;28;20024;-91
2023/08/20 06:58:39;;;;;;;18.63;2.38;;;15.10;99.90;;;;;;5064106;28;20033;-90
2023/08/20 07:01:08;;;;;;;11.48;2.40;;;15.20;99.90;;;;;;5060786;28;20031;-91
2023/08/20 07:03:43;;;;;;;13.82;3.05;;;15.30;99.90;;;;;;5069449;28;20063;-90
2023/08/20 07:06:10;;;;;;;18.42;2.30;;;15.30;99.90;;;;;;5073008;28;20325;-91
2023/08/20 07:08:38;;;;;;;10.50;2.25;;;15.40;99.90;;;;;;5065670;28;20025;-92
2023/08/20 07:11:04;;;;;;;14.82;2.72;;;15.40;99.90;;;;;;5066284;28;20030;-90
2023/08/20 07:13:29;;;;;;;9.73;2.15;;;15.50;99.90;;;;;;5066692;28;20547;-89
2023/08/20 07:15:55;;;;;;;8.70;2.35;;;15.60;99.90;;;;;;5072074;28;20512;-91
2023/08/20 07:18:21;;;;;;;8.52;2.35;;;15.60;99.90;;;;;;5072362;28;20025;-90
2023/08/20 07:20:46;;;;;;;11.25;2.03;;;15.70;99.90;;;;;;5067844;28;20562;-90
2023/08/20 07:23:12;;;;;;;8.88;2.55;;;15.70;99.90;;;;;;5063701;28;20511;-90
2023/08/20 07:25:40;;;;;;;8.80;1.88;;;15.80;99.90;;;;;;5068098;28;20026;-90
2023/08/20 07:28:09;;;;;;;11.60;2.50;;;15.80;99.90;;;;;;5065453;28;20029;-89
2023/08/20 07:30:35;;;;;;;8.63;2.20;;;15.90;99.90;;;;;;5071281;28;20504;-90
2023/08/20 07:33:02;;;;;;;8.77;2.20;;;15.90;99.90;;;;;;5072394;28;20035;-90
2023/08/20 07:35:28;;;;;;;13.63;2.45;;;16.00;99.90;;;;;;5067871;28;20028;-90
2023/08/20 07:37:54;;;;;;;12.07;2.22;;;16.10;99.90;;;;;;5068683;28;20017;-90
2023/08/20 07:40:20;;;;;;;9.68;2.70;;;16.20;99.90;;;;;;5068619;28;20429;-90
2023/08/20 07:42:45;;;;;;;10.57;2.75;;;16.20;99.90;;;;;;5059843;28;20025;-87
2023/08/20 07:45:11;;;;;;;9.00;2.10;;;16.30;99.90;;;;;;5054526;28;20063;-90
2023/08/20 07:47:37;;;;;;;14.10;3.47;;;16.30;99.90;;;;;;5058830;28;20040;-92
2023/08/20 07:50:06;;;;;;;6.38;2.20;;;16.40;99.90;;;;;;5058564;28;20025;-90
2023/08/20 07:52:32;;;;;;;11.48;2.70;;;16.40;99.90;;;;;;5055892;28;20036;-89
2023/08/20 07:54:58;;;;;;;9.27;2.35;;;16.50;99.90;;;;;;5055600;28;20033;-90
2023/08/20 07:57:24;;;;;;;8.52;2.17;;;16.60;99.90;;;;;;5053965;28;20367;-90
2023/08/20 07:59:50;;;;;;;13.18;2.15;;;16.70;99.90;;;;;;5058559;28;20106;-90
2023/08/20 08:02:16;;;;;;;6.53;2.33;;;16.70;99.90;;;;;;5055209;28;20025;-90
2023/08/20 08:04:42;;;;;;;7.93;2.47;;;16.80;99.90;;;;;;5053345;28;20048;-90
2023/08/20 08:07:08;;;;;;;11.50;2.53;;;16.90;99.90;;;;;;5050832;28;20033;-88
2023/08/20 08:09:34;;;;;;;10.02;2.47;;;17.00;99.90;;;;;;5051390;28;20021;-90
2023/08/20 08:12:00;;;;;;;7.15;1.70;;;17.00;99.90;;;;;;5051274;28;20094;-89
2023/08/20 08:14:26;;;;;;;15.65;2.22;;;17.10;99.90;;;;;;5052268;28;20032;-88
2023/08/20 08:16:51;;;;;;;10.20;2.38;;;17.10;99.90;;;;;;5052711;28;20028;-89
2023/08/20 08:19:18;;;;;;;10.00;2.10;;;17.20;99.90;;;;;;5052456;28;20029;-89
2023/08/20 08:21:44;;;;;;;8.20;2.30;;;17.20;99.90;;;;;;5051066;28;20032;-91
2023/08/20 08:24:10;;;;;;;9.07;1.75;;;17.30;99.90;;;;;;5058203;28;20067;-90
2023/08/20 08:26:36;;;;;;;10.30;2.25;;;17.30;99.90;;;;;;5050838;28;20033;-90
2023/08/20 08:29:03;;;;;;;7.63;1.75;;;17.40;99.90;;;;;;5051989;28;20035;-91
2023/08/20 08:31:29;;;;;;;8.02;2.20;;;17.40;99.90;;;;;;5051006;28;20029;-91
2023/08/20 08:33:55;;;;;;;10.65;2.53;;;17.50;99.90;;;;;;5050971;28;20390;-91
2023/08/20 08:36:21;;;;;;;9.80;2.13;;;17.60;99.90;;;;;;5050057;28;20099;-90
2023/08/20 08:38:46;;;;;;;3.95;1.25;;;17.60;99.90;;;;;;5036893;28;20101;-90
2023/08/20 08:41:13;;;;;;;10.48;1.63;;;17.70;99.90;;;;;;5043834;28;20013;-91
2023/08/20 08:43:40;;;;;;;11.93;1.90;;;17.70;99.90;;;;;;5049987;28;20079;-90
2023/08/20 08:46:15;;;;;;;14.43;2.42;;;17.70;99.90;;;;;;5061196;28;20071;-92
2023/08/20 08:48:46;;;;;;;10.02;1.60;;;17.80;99.90;;;;;;5053344;28;20036;-90
2023/08/20 08:51:12;;;;;;;;;;;17.80;99.90;;;;;;5055594;28;20025;-89
2023/08/20 08:53:38;;;;;;;9.13;1.92;;;17.80;99.90;;;;;;5058197;28;19904;-90
2023/08/20 08:56:05;;;;;;;17.20;2.63;;;17.80;99.90;;;;;;5061825;28;20452;-89
2023/08/20 08:58:32;;;;;;;10.60;2.53;;;17.70;99.90;;;;;;5066478;28;20120;-88
2023/08/20 09:00:58;;;;;;;7.38;1.80;;;17.70;99.90;;;;;;5062840;28;20121;-88
2023/08/20 09:03:24;;;;;;;6.60;2.10;;;17.70;99.90;;;;;;5060689;28;20032;-90
2023/08/20 09:05:55;;;;;;;10.05;1.80;;;17.80;99.90;;;;;;5057658;28;20102;-89
2023/08/20 09:08:28;;;;;;;8.30;2.20;;;17.90;99.90;;;;;;5059092;28;20036;-89
2023/08/20 09:10:56;;;;;;;10.65;2.33;;;17.90;99.90;;;;;;5056351;28;20039;-89
2023/08/20 09:13:35;;;;;;;8.30;2.75;;;17.90;99.90;;;;;;5056449;28;20089;-89
2023/08/20 09:16:07;;;;;;;11.73;2.72;;;17.90;99.90;;;;;;5053273;28;20090;-88
2023/08/20 09:18:37;;;;;;;13.55;2.15;;;17.80;99.90;;;;;;5054814;28;20025;-89
2023/08/20 09:21:06;;;;;;;;;;;17.80;99.90;;;;;;5055518;28;20029;-89
2023/08/20 09:23:31;;;;;;;8.10;2.03;;;17.80;99.90;;;;;;5054663;28;20267;-89
2023/08/20 09:25:57;;;;;;;6.43;1.80;;;17.90;99.90;;;;;;5054716;28;20032;-88
2023/08/20 09:28:23;;;;;;;9.65;2.47;;;17.90;99.90;;;;;;5054280;28;20082;-89
2023/08/20 09:30:56;;;;;;;17.20;2.22;;;18.10;99.90;;;;;;5055846;28;20068;-88
2023/08/20 09:33:21;;;;;;;6.90;1.67;;;18.20;99.90;;;;;;5054588;28;20071;-90
2023/08/20 09:35:51;;;;;;;7.40;2.00;;;18.30;99.90;;;;;;5054466;28;20441;-88
2023/08/20 09:38:21;;;;;;;7.68;1.50;;;18.40;99.90;;;;;;5051797;28;20020;-88
2023/08/20 09:40:52;;;;;;;8.80;1.75;;;18.60;99.90;;;;;;5054512;28;20025;-90
2023/08/20 09:43:19;;;;;;;9.38;1.52;;;18.70;99.90;;;;;;5051973;28;20033;-88
2023/08/20 09:45:47;;;;;;;10.23;2.70;;;18.80;99.90;;;;;;5055409;28;20041;-90
2023/08/20 09:48:18;;;;;;;8.52;1.50;;;18.90;99.90;;;;;;5054429;28;20638;-89
2023/08/20 09:50:47;;;;;;;7.00;1.48;;;19.00;99.90;;;;;;5054512;28;20159;-89
2023/08/20 09:53:17;;;;;;;6.20;1.50;;;19.20;99.90;;;;;;5053844;28;20478;-88
2023/08/20 09:55:44;;;;;;;9.65;1.38;;;19.30;99.90;;;;;;5053813;28;20040;-89
2023/08/20 09:58:11;;;;;;;6.85;1.52;;;19.50;99.90;;;;;;5054896;28;20029;-88
2023/08/20 10:00:38;;;;;;;9.05;1.25;;;19.60;99.90;;;;;;5054718;28;20025;-88
2023/08/20 10:03:04;;;;;;;4.38;1.25;;;19.70;99.90;;;;;;5053670;28;20067;-90
2023/08/20 10:05:30;;;;;;;3.95;1.20;;;19.70;99.90;;;;;;5054999;28;20052;-90
2023/08/20 10:07:59;;;;;;;6.93;1.50;;;19.80;99.90;;;;;;5054585;28;20033;-90
2023/08/20 10:10:25;;;;;;;7.40;1.63;;;19.90;99.90;;;;;;5054518;28;20111;-88
2023/08/20 10:12:51;;;;;;;2.72;1.20;;;20.00;99.90;;;;;;5057208;28;20090;-87
2023/08/20 10:15:17;;;;;;;4.53;1.48;;;20.00;99.90;;;;;;5058939;28;20021;-88
2023/08/20 10:17:45;;;;;;;7.78;1.58;;;20.00;99.90;;;;;;5054719;28;20032;-89
2023/08/20 10:20:14;;;;;;;7.18;1.48;;;20.00;99.90;;;;;;5053785;28;20056;-88
2023/08/20 10:22:42;;;;;;;5.63;1.83;;;20.00;99.90;;;;;;5053898;28;20115;-90
2023/08/20 10:25:12;;;;;;;6.90;1.80;;;19.90;99.90;;;;;;5054221;28;20265;-88
2023/08/20 10:27:40;;;;;;;6.55;1.98;;;19.90;99.90;;;;;;5056960;28;20055;-89
2023/08/20 10:30:15;;;;;;;7.35;1.77;;;19.90;99.90;;;;;;5059644;28;20075;-87
2023/08/20 10:32:51;;;;;;;6.18;1.23;;;20.00;99.90;;;;;;5054862;28;20471;-89
2023/08/20 10:35:47;;;;;;;4.38;1.30;;;20.10;99.90;;;;;;5053325;28;20110;-87
2023/08/20 10:38:18;;;;;;;6.78;1.50;;;20.20;99.90;;;;;;5049205;28;20036;-89
2023/08/20 10:40:58;;;;;;;6.05;1.30;;;20.30;99.90;;;;;;5054598;28;20071;-89
2023/08/20 10:43:30;;;;;;;8.90;1.48;;;20.30;99.90;;;;;;5054435;28;20463;-89
2023/08/20 10:46:23;;;;;;;6.95;1.00;;;20.30;99.90;;;;;;5053104;28;20132;-90
2023/08/20 10:49:01;;;;;;;3.38;1.17;;;20.40;99.90;;;;;;5053706;28;20029;-90
2023/08/20 10:51:28;;;;;;;4.40;1.10;;;20.30;99.90;;;;;;5053103;28;20108;-89
2023/08/20 10:54:00;;;;;;;9.38;1.35;;;20.30;99.90;;;;;;5054593;28;20016;-89
2023/08/20 10:56:46;;;;;;;6.47;1.25;;;20.20;99.90;;;;;;5053836;28;20021;-90
2023/08/20 10:59:17;;;;;;;5.18;1.30;;;20.20;99.90;;;;;;5055432;28;20064;-88
2023/08/20 11:01:45;;;;;;;7.25;1.77;;;20.20;99.90;;;;;;5053431;28;20025;-89
2023/08/20 11:04:12;;;;;;;6.97;1.23;;;20.30;99.90;;;;;;5053044;28;20166;-88
2023/08/20 11:06:39;;;;;;;6.00;1.52;;;20.30;99.90;;;;;;5054070;28;20471;-89
2023/08/20 11:09:08;;;;;;;4.50;1.80;;;20.30;99.90;;;;;;5053435;28;20082;-88
2023/08/20 11:11:34;;;;;;;15.25;1.88;;;20.30;99.90;;;;;;5053013;28;20490;-88
2023/08/20 11:14:07;;;;;;;9.20;1.60;;;20.40;99.90;;;;;;5053799;28;20036;-90
2023/08/20 11:16:36;;;;;;;5.68;1.60;;;20.60;99.90;;;;;;5053803;28;20029;-88
2023/08/20 11:19:07;;;;;;;3.22;1.15;;;20.70;99.90;;;;;;5052993;28;20035;-89
2023/08/20 11:21:33;;;;;;;;;;;20.80;99.90;;;;;;5053199;28;20116;-88
2023/08/20 11:24:01;;;;;;;7.07;1.45;;;21.00;99.90;;;;;;5052966;28;19912;-90
2023/08/20 11:26:26;;;;;;;4.18;1.63;;;21.30;99.90;;;;;;5053935;28;20053;-91
2023/08/20 11:28:52;;;;;;;6.63;1.42;;;21.40;99.70;;;;;;5052625;28;20033;-89
2023/08/20 11:31:18;;;;;;;4.07;1.42;;;21.60;99.30;;;;;;5053663;28;20028;-88
2023/08/20 11:33:44;;;;;;;4.07;1.20;;;21.80;97.50;;;;;;5052799;28;20094;-89
2023/08/20 11:36:10;;;;;;;4.93;1.20;;;21.90;95.70;;;;;;5053379;28;20029;-89
2023/08/20 11:38:35;;;;;;;6.10;1.75;;;22.10;94.90;;;;;;5050838;28;20029;-90
2023/08/20 11:41:01;;;;;;;6.13;1.02;;;22.10;93.40;;;;;;5052683;28;20465;-87
2023/08/20 11:43:30;;;;;;;3.33;1.10;;;22.10;92.80;;;;;;5052103;28;20025;-88
2023/08/20 11:45:56;;;;;;;3.42;0.93;;;22.10;92.10;;;;;;5053167;28;20104;-88
2023/08/20 11:48:22;;;;;;;8.30;1.88;;;22.20;91.80;;;;;;5052199;28;20125;-88
2023/08/20 11:50:49;;;;;;;6.38;1.23;;;22.20;91.00;;;;;;5052316;28;20025;-88
2023/08/20 11:53:15;;;;;;;6.50;1.50;;;22.10;90.40;;;;;;5052200;28;20039;-89
2023/08/20 11:55:43;;;;;;;8.02;1.83;;;22.10;90.40;;;;;;5052633;28;20025;-88
2023/08/20 11:58:12;;;;;;;6.07;1.63;;;22.30;90.60;;;;;;5052395;28;20044;-89
2023/08/20 12:00:38;;;;;;;7.63;1.27;;;22.50;90.20;;;;;;5052361;28;20029;-90
2023/08/20 12:03:05;;;;;;;6.20;1.30;;;22.80;88.80;;;;;;5049560;28;20035;-88
2023/08/20 12:05:31;;;;;;;6.05;1.20;;;23.00;87.30;;;;;;5056026;28;20057;-88
2023/08/20 12:08:01;;;;;;;4.85;1.15;;;23.20;86.50;;;;;;5055450;28;20033;-88
2023/08/20 12:10:29;;;;;;;6.43;1.20;;;23.50;86.60;;;;;;5056174;28;20033;-88
2023/08/20 12:12:56;;;;;;;4.90;1.42;;;23.70;82.80;;;;;;5055004;28;20119;-89
2023/08/20 12:15:23;;;;;;;3.58;0.98;;;23.80;82.50;;;;;;5052796;28;20044;-89
2023/08/20 12:18:00;;;;;;;4.38;1.38;;;24.00;83.00;;;;;;5052532;28;20033;-90
2023/08/20 12:20:30;;;;;;;4.18;1.27;;;24.20;82.00;;;;;;5056677;28;20029;-91
2023/08/20 12:22:59;;;;;;;4.93;1.15;;;24.10;81.20;;;;;;5058504;28;20036;-89
2023/08/20 12:25:25;;;;;;;4.63;1.10;;;24.00;80.20;;;;;;5061678;28;20032;-90
2023/08/20 12:27:51;;;;;;;5.65;1.20;;;23.90;80.40;;;;;;5057793;28;20037;-89
2023/08/20 12:30:17;;;;;;;5.38;1.40;;;23.80;81.00;;;;;;5057952;28;20029;-90
2023/08/20 12:32:42;;;;;;;4.40;1.30;;;23.80;81.70;;;;;;5058529;28;20033;-89
2023/08/20 12:35:08;;;;;;;4.40;1.10;;;23.80;81.50;;;;;;5060736;28;20523;-90
2023/08/20 12:37:34;;;;;;;4.28;1.20;;;24.00;81.30;;;;;;5056712;28;20053;-89
2023/08/20 12:39:59;;;;;;;3.80;1.02;;;24.00;79.70;;;;;;5057693;28;20021;-89
2023/08/20 12:42:25;;;;;;;5.95;1.50;;;23.90;79.60;;;;;;5055819;28;20025;-89